createdAt,value
2018-05-24T00:05:11.552Z,41.60
2018-05-24T00:11:15.894Z,42.05
2018-05-24T00:17:21.635Z,42.21
2018-05-24T00:23:26.402Z,42.83
2018-05-24T00:29:30.762Z,42.77
2018-05-24T00:35:35.918Z,43.73
2018-05-24T00:41:40.274Z,44.05
2018-05-24T00:47:44.612Z,44.11
2018-05-24T00:53:48.996Z,44.65
2018-05-24T00:59:53.412Z,44.80
2018-05-24T01:05:57.757Z,45.04
2018-05-24T01:12:02.119Z,45.39
2018-05-24T01:18:06.477Z,46.39
2018-05-24T01:24:10.882Z,47.18
2018-05-24T01:30:15.203Z,46.96
2018-05-24T01:36:19.601Z,47.23
2018-05-24T01:42:24.864Z,48.82
2018-05-24T01:48:29.244Z,50.08
2018-05-24T01:54:33.574Z,51.63
2018-05-24T02:00:37.966Z,53.35
2018-05-24T02:06:42.362Z,53.86
2018-05-24T02:12:46.801Z,54.99
2018-05-24T02:18:51.209Z,56.79
2018-05-24T02:24:55.578Z,57.53
2018-05-24T02:30:59.920Z,57.49
2018-05-24T02:37:04.269Z,58.55
2018-05-24T02:43:09.394Z,58.82
2018-05-24T02:49:13.737Z,59.06
2018-05-24T02:55:18.911Z,58.77
2018-05-24T03:01:24.270Z,58.73
2018-05-24T03:07:28.659Z,59.12
2018-05-24T03:13:33.140Z,59.89
2018-05-24T03:19:37.565Z,60.35
2018-05-24T03:25:41.878Z,61.40
2018-05-24T03:31:46.236Z,61.58
2018-05-24T03:37:50.920Z,62.21
2018-05-24T03:43:55.458Z,64.11
2018-05-24T03:50:00.598Z,64.32
2018-05-24T03:56:04.976Z,64.75
2018-05-24T04:02:27.072Z,64.10
2018-05-24T04:08:31.441Z,64.38
2018-05-24T04:14:35.802Z,64.71
2018-05-24T04:20:40.160Z,63.34
2018-05-24T04:26:45.435Z,63.91
2018-05-24T04:32:51.131Z,64.59
2018-05-24T04:38:55.517Z,64.46
2018-05-24T04:45:00.635Z,64.42
2018-05-24T04:51:05.329Z,63.88
2018-05-24T04:57:09.737Z,63.72
2018-05-24T05:03:14.085Z,63.22
2018-05-24T05:09:18.442Z,63.07
2018-05-24T05:15:23.035Z,62.45
2018-05-24T05:21:27.395Z,62.99
2018-05-24T05:27:31.785Z,63.08
2018-05-24T05:33:36.124Z,63.23
2018-05-24T05:39:41.983Z,62.05
2018-05-24T05:45:46.339Z,59.19
2018-05-24T05:51:50.753Z,60.30
2018-05-24T05:57:55.113Z,62.04
2018-05-24T06:03:59.453Z,62.15
2018-05-24T06:10:03.800Z,61.81
2018-05-24T06:16:08.920Z,62.03
2018-05-24T06:22:13.299Z,61.93
2018-05-24T06:28:17.714Z,61.82
2018-05-24T06:34:22.101Z,61.55
2018-05-24T06:40:26.538Z,63.25
2018-05-24T06:46:30.890Z,64.78
2018-05-24T06:52:35.205Z,67.79
2018-05-24T06:58:39.560Z,66.78
2018-05-24T07:04:43.925Z,65.57
2018-05-24T07:10:48.285Z,65.83
2018-05-24T07:16:52.941Z,66.94
2018-05-24T07:22:58.080Z,67.59
2018-05-24T07:29:02.523Z,68.19
2018-05-24T07:35:06.863Z,65.63
2018-05-24T07:41:12.068Z,62.95
2018-05-24T07:47:16.408Z,59.75
2018-05-24T07:53:21.390Z,61.38
2018-05-24T07:59:25.825Z,60.68
2018-05-24T08:05:30.937Z,57.77
2018-05-24T08:11:35.305Z,56.96
2018-05-24T08:17:39.657Z,56.18
2018-05-24T08:23:44.021Z,55.86
2018-05-24T08:29:48.397Z,56.71
2018-05-24T08:35:52.753Z,55.31
2018-05-24T08:41:57.108Z,55.62
2018-05-24T08:48:01.515Z,57.14
2018-05-24T08:54:05.866Z,55.89
2018-05-24T09:00:10.264Z,56.52
2018-05-24T09:06:16.145Z,56.12
2018-05-24T09:12:20.732Z,58.30
2018-05-24T09:18:25.134Z,58.85
2018-05-24T09:24:29.589Z,61.45
2018-05-24T09:30:33.938Z,62.67
2018-05-24T09:36:38.289Z,63.29
2018-05-24T09:42:43.446Z,63.49
2018-05-24T09:48:47.815Z,64.96
2018-05-24T09:54:52.433Z,66.69
2018-05-24T10:00:56.816Z,68.28
2018-05-24T10:07:01.944Z,69.22
2018-05-24T10:13:06.301Z,71.54
2018-05-24T10:19:10.653Z,69.86
2018-05-24T10:25:15.119Z,69.20
2018-05-24T10:31:20.793Z,69.84
2018-05-24T10:37:25.438Z,69.81
2018-05-24T10:43:29.792Z,70.11
2018-05-24T10:49:34.933Z,71.03
2018-05-24T10:55:39.318Z,71.31
2018-05-24T11:01:43.832Z,73.06
2018-05-24T11:07:49.053Z,74.21
2018-05-24T11:13:54.337Z,75.05
2018-05-24T11:19:58.705Z,76.73
2018-05-24T11:26:03.097Z,76.12
2018-05-24T11:32:07.488Z,76.07
2018-05-24T11:38:11.820Z,76.35
2018-05-24T11:44:16.966Z,77.22
2018-05-24T11:50:21.377Z,76.79
2018-05-24T11:56:25.735Z,76.40
2018-05-24T12:02:30.103Z,75.83
2018-05-24T12:08:34.502Z,74.65
2018-05-24T12:14:39.006Z,73.35
2018-05-24T12:20:44.202Z,72.19
2018-05-24T12:26:48.664Z,71.61
2018-05-24T12:32:54.027Z,70.92
2018-05-24T12:38:58.432Z,69.32
2018-05-24T12:45:03.551Z,69.46
2018-05-24T12:51:07.930Z,66.75
2018-05-24T12:57:12.303Z,65.57
2018-05-24T13:03:16.681Z,64.86
2018-05-24T13:09:22.569Z,66.54
2018-05-24T13:15:26.960Z,65.32
2018-05-24T13:21:31.323Z,64.06
2018-05-24T13:27:35.692Z,63.63
2018-05-24T13:33:40.831Z,58.84
2018-05-24T13:39:45.354Z,58.03
2018-05-24T13:45:49.848Z,57.87
2018-05-24T13:51:54.522Z,59.40
2018-05-24T13:57:59.633Z,61.73
2018-05-24T14:04:04.835Z,64.42
2018-05-24T14:10:09.248Z,65.22
2018-05-24T14:16:15.136Z,66.46
2018-05-24T14:22:20.170Z,67.70
2018-05-24T14:28:24.990Z,69.08
2018-05-24T14:34:29.341Z,69.16
2018-05-24T14:40:34.459Z,70.50
2018-05-24T14:46:38.857Z,71.23
2018-05-24T14:52:43.253Z,71.66
2018-05-24T14:58:47.655Z,72.12
2018-05-24T15:04:52.967Z,73.08
2018-05-24T15:10:57.344Z,73.86
2018-05-24T15:17:01.727Z,74.21
2018-05-24T15:23:06.123Z,73.13
2018-05-24T15:29:11.337Z,72.24
2018-05-24T15:35:15.706Z,68.87
2018-05-24T15:41:20.914Z,70.34
2018-05-24T15:47:25.654Z,68.87
2018-05-24T15:53:30.062Z,65.17
2018-05-24T15:59:34.630Z,66.53
2018-05-24T16:05:38.971Z,64.40
2018-05-24T16:11:43.338Z,66.01
2018-05-24T16:17:47.708Z,65.07
2018-05-24T16:23:52.454Z,65.11
2018-05-24T16:29:56.812Z,67.38
2018-05-24T16:36:01.171Z,66.35
2018-05-24T16:42:05.526Z,66.70
2018-05-24T16:48:09.885Z,65.61
2018-05-24T16:54:15.025Z,66.70
2018-05-24T17:00:20.537Z,65.32
2018-05-24T17:06:25.971Z,65.13
2018-05-24T17:12:30.366Z,64.68
2018-05-24T17:18:34.675Z,64.86
2018-05-24T17:24:39.039Z,66.75
2018-05-24T17:30:43.447Z,66.22
2018-05-24T17:36:47.797Z,67.56
2018-05-24T17:42:52.860Z,66.22
2018-05-24T17:48:57.229Z,66.63
2018-05-24T17:55:01.613Z,69.40
2018-05-24T18:01:05.966Z,70.07
2018-05-24T18:07:11.123Z,71.96
2018-05-24T18:13:15.476Z,73.56
2018-05-24T18:19:19.936Z,73.50
2018-05-24T18:25:24.598Z,74.11
2018-05-24T18:31:30.441Z,73.13
2018-05-24T18:37:34.817Z,72.93
2018-05-24T18:43:39.249Z,72.83
2018-05-24T18:49:43.709Z,72.46
2018-05-24T18:55:48.013Z,72.78
2018-05-24T19:01:53.358Z,74.22
2018-05-24T19:07:57.715Z,72.82
2018-05-24T19:14:02.122Z,73.41
2018-05-24T19:20:06.495Z,73.32
2018-05-24T19:26:11.024Z,72.87
2018-05-24T19:32:15.496Z,74.91
2018-05-24T19:38:19.852Z,75.48
2018-05-24T19:44:25.159Z,75.33
2018-05-24T19:50:30.365Z,75.66
2018-05-24T19:56:34.738Z,75.68
2018-05-24T20:02:39.184Z,75.57
2018-05-24T20:08:43.584Z,76.44
2018-05-24T20:14:48.775Z,76.70
2018-05-24T20:20:53.186Z,76.97
2018-05-24T20:26:57.659Z,76.77
2018-05-24T20:33:02.099Z,76.88
2018-05-24T20:39:07.247Z,77.17
2018-05-24T20:45:11.584Z,77.47
2018-05-24T20:51:15.948Z,77.68
2018-05-24T20:57:20.332Z,77.63
2018-05-24T21:03:24.774Z,77.81
2018-05-24T21:09:29.194Z,77.48
2018-05-24T21:15:33.544Z,77.60
2018-05-24T21:21:38.680Z,77.96
2018-05-24T21:27:43.211Z,78.14
2018-05-24T21:33:48.342Z,78.08
2018-05-24T21:39:54.055Z,78.41
2018-05-24T21:45:58.401Z,78.55
2018-05-24T21:52:02.776Z,78.28
2018-05-24T21:58:07.149Z,78.13
2018-05-24T22:04:11.955Z,79.26
2018-05-24T22:10:16.318Z,78.52
2018-05-24T22:16:21.176Z,79.09
2018-05-24T22:22:26.299Z,79.15
2018-05-24T22:28:30.647Z,79.37
2018-05-24T22:34:35.765Z,79.73
2018-05-24T22:40:40.136Z,79.75
2018-05-24T22:46:44.489Z,80.17
2018-05-24T22:52:49.633Z,80.03
2018-05-24T22:58:54.224Z,80.28
2018-05-24T23:04:58.617Z,80.58
2018-05-24T23:11:03.025Z,80.84
2018-05-24T23:17:07.612Z,80.69
2018-05-24T23:23:11.980Z,79.48
2018-05-24T23:29:16.356Z,80.02
2018-05-24T23:35:21.009Z,80.24
2018-05-24T23:41:26.133Z,79.36
2018-05-24T23:47:30.636Z,78.10
2018-05-24T23:53:34.992Z,78.48
2018-05-24T23:59:39.339Z,78.64
